San Lorenzo, CA

1:54 AM PDT on October 20, 2014 (GMT -0700)
Newark Lake Area | Change Station
CLOSE
Current Station
Personal Weather Station
Location: Newark, CA
Elevation: 26 ft
Nearby Weather Stations

Elev 26 ft 37.56 °N, 122.04 °W | Updated 3 seconds ago

Overcast
Overcast
63.0 °F
Feels Like 63.0 °F
N
1.8
Wind Variable Wind from WSW
Gusts 1.8 mph

Today
High -- | Low -- °F
--% Chance of Precip.
Yesterday
High -- | Low -- °F
Precip. -- in
7:21 AM 6:24 PM
Waning Crescent, 12% visible
Pressure 29.94 in
Visibility 10.0 miles
Clouds Overcast 1600 ft
Dew Point 57 °F
Humidity 82%
Rainfall 0.00 in
Snow Depth Not available.
UV 0 out of 12
Pollen 2.00 out of 12
Ozone Good
PM2.5 Good
Flu Activity Sporadic
METAR KHWD 200754Z 28004KT 10SM OVC016 19/17 A2991 RMK AO2 SLP138 T01890167 402330133

More Conditions Fewer Conditions

Pressure 29.94 in
Visibility 10.0 miles
Clouds Overcast 1600 ft
Dew Point 57 °F
Humidity 82%
Rainfall 0.00 in
Snow Depth Not available.
UV 0 out of 12
Pollen 2.00 out of 12
Ozone Good
PM2.5 Good
Flu Activity Sporadic
METAR KHWD 200754Z 28004KT 10SM OVC016 19/17 A2991 RMK AO2 SLP138 T01890167 402330133

More Conditions Fewer Conditions

10-Day Weather Forecast

Almanac

Astronomy

Oct. 20, 2014 Rise Set
Actual Time 7:21 AM PDT 6:24 PM PDT
Civil Twilight 6:55 AM PDT 6:50 PM PDT
Nautical Twilight 6:24 AM PDT 7:21 PM PDT
Astronomical Twilight 5:54 AM PDT 7:51 PM PDT
Moon 4:18 AM PDT 4:46 PM PDT
Length of Visible Light 11h 55m
Length of Day
11h 02m
Waning Crescent, 12% of the Moon is Illuminated
Today
Waning Crescent
Oct 23
New
Oct 30
First Quarter
Nov 6
Full
Nov 14
Last Quarter

Today's Extremes

State Highs State Lows

Community

WunderPhotos

Upload Photos

1,763,316 photos uploaded!

Nearby

Air Quality

  Air Quality AQ Index Pollutant
Yesterday Good
OZONE
Yesterday Good
PM2.5
Current Good
OZONE
Current Good
PM2.5
Monday Good
PM2.5
Tuesday Good
PM2.5
Wednesday Good
PM2.5

Snow Depth

Station Depth Elevation
Blue Lakes 0 in 8000 ft
Forestdale Creek 0 in 8029 ft
Echo Peak 1 in 7800 ft
Ebbetts Pass 0 in 8700 ft
Burnside Lake 0 in 8139 ft

Earthquake Activity

City Distance Mag. Time & Date
Cobb, California 90 miles 2.5 9:25 PM PDT
2014-10-19
Soledad, California 94 miles 2.6 3:21 PM PDT
2014-10-18
East Foothills, California 29 miles 2.6 8:16 AM PDT
2014-10-18
Minimum magnitude displayed is 2.5.

Coastal Water Temperatures

Place Temperature
No Stations Reporting

Nearby Weather Stations